sensor_id;sensor_type;location;lat;lon;timestamp;pressure;altitude;pressure_sealevel;temperature;humidity
26719;BME280;14326;50.794;6.060;2024-03-06T00:01:05;99761.28;;;6.51;100.00
26719;BME280;14326;50.794;6.060;2024-03-06T00:03:32;99768.47;;;6.57;100.00
26719;BME280;14326;50.794;6.060;2024-03-06T00:06:00;99764.16;;;6.61;100.00
26719;BME280;14326;50.794;6.060;2024-03-06T00:08:27;99766.06;;;6.65;100.00
26719;BME280;14326;50.794;6.060;2024-03-06T00:10:54;99763.66;;;6.74;100.00
26719;BME280;14326;50.794;6.060;2024-03-06T00:13:20;99760.19;;;6.76;100.00
26719;BME280;14326;50.794;6.060;2024-03-06T00:15:47;99757.50;;;6.75;100.00
26719;BME280;14326;50.794;6.060;2024-03-06T00:18:14;99759.22;;;6.73;100.00
26719;BME280;14326;50.794;6.060;2024-03-06T00:20:40;99758.47;;;6.77;100.00
26719;BME280;14326;50.794;6.060;2024-03-06T00:23:09;99767.22;;;6.76;100.00
26719;BME280;14326;50.794;6.060;2024-03-06T00:25:36;99765.38;;;6.73;100.00
26719;BME280;14326;50.794;6.060;2024-03-06T00:28:03;99779.44;;;6.71;100.00
26719;BME280;14326;50.794;6.060;2024-03-06T00:30:29;99772.63;;;6.80;100.00
26719;BME280;14326;50.794;6.060;2024-03-06T00:32:56;99786.63;;;6.76;100.00
26719;BME280;14326;50.794;6.060;2024-03-06T00:35:24;99781.09;;;6.67;100.00
26719;BME280;14326;50.794;6.060;2024-03-06T00:37:51;99794.19;;;6.63;100.00
26719;BME280;14326;50.794;6.060;2024-03-06T00:40:19;99795.81;;;6.57;100.00
26719;BME280;14326;50.794;6.060;2024-03-06T00:42:46;99791.66;;;6.67;100.00
26719;BME280;14326;50.794;6.060;2024-03-06T00:45:13;99791.88;;;6.75;100.00
26719;BME280;14326;50.794;6.060;2024-03-06T00:47:39;99792.81;;;6.77;100.00
26719;BME280;14326;50.794;6.060;2024-03-06T00:50:06;99793.78;;;6.80;100.00
26719;BME280;14326;50.794;6.060;2024-03-06T00:52:33;99793.00;;;6.83;100.00
26719;BME280;14326;50.794;6.060;2024-03-06T00:55:00;99784.28;;;6.87;100.00
26719;BME280;14326;50.794;6.060;2024-03-06T00:57:28;99797.50;;;6.87;100.00
26719;BME280;14326;50.794;6.060;2024-03-06T00:59:54;99801.78;;;6.83;100.00
26719;BME280;14326;50.794;6.060;2024-03-06T01:02:21;99805.16;;;6.78;100.00
26719;BME280;14326;50.794;6.060;2024-03-06T01:04:47;99814.81;;;6.76;100.00
26719;BME280;14326;50.794;6.060;2024-03-06T01:07:14;99808.50;;;6.71;100.00
26719;BME280;14326;50.794;6.060;2024-03-06T01:09:40;99818.81;;;6.62;100.00
26719;BME280;14326;50.794;6.060;2024-03-06T01:12:07;99817.91;;;6.61;100.00
26719;BME280;14326;50.794;6.060;2024-03-06T01:14:35;99813.31;;;6.54;100.00
26719;BME280;14326;50.794;6.060;2024-03-06T01:17:02;99821.78;;;6.42;100.00
26719;BME280;14326;50.794;6.060;2024-03-06T01:19:28;99826.75;;;6.30;100.00
26719;BME280;14326;50.794;6.060;2024-03-06T01:21:55;99822.00;;;6.20;100.00
26719;BME280;14326;50.794;6.060;2024-03-06T01:24:21;99834.25;;;6.16;100.00
26719;BME280;14326;50.794;6.060;2024-03-06T01:26:48;99832.38;;;6.12;100.00
26719;BME280;14326;50.794;6.060;2024-03-06T01:29:14;99828.66;;;6.07;100.00
26719;BME280;14326;50.794;6.060;2024-03-06T01:31:43;99829.50;;;6.05;100.00
26719;BME280;14326;50.794;6.060;2024-03-06T01:34:11;99834.41;;;5.93;100.00
26719;BME280;14326;50.794;6.060;2024-03-06T01:36:38;99833.56;;;5.94;100.00
26719;BME280;14326;50.794;6.060;2024-03-06T01:39:05;99843.03;;;5.87;100.00
26719;BME280;14326;50.794;6.060;2024-03-06T01:41:32;99836.50;;;5.77;100.00
26719;BME280;14326;50.794;6.060;2024-03-06T01:43:59;99840.84;;;5.75;100.00
26719;BME280;14326;50.794;6.060;2024-03-06T01:46:25;99839.13;;;5.77;100.00
26719;BME280;14326;50.794;6.060;2024-03-06T01:48:53;99838.88;;;5.68;100.00
26719;BME280;14326;50.794;6.060;2024-03-06T01:51:20;99835.97;;;5.61;100.00
26719;BME280;14326;50.794;6.060;2024-03-06T01:53:47;99837.72;;;5.60;100.00
26719;BME280;14326;50.794;6.060;2024-03-06T01:56:15;99838.59;;;5.59;100.00
26719;BME280;14326;50.794;6.060;2024-03-06T01:58:44;99842.25;;;5.64;100.00
26719;BME280;14326;50.794;6.060;2024-03-06T02:01:12;99848.19;;;5.57;100.00
26719;BME280;14326;50.794;6.060;2024-03-06T02:03:39;99845.22;;;5.48;100.00
26719;BME280;14326;50.794;6.060;2024-03-06T02:06:08;99840.97;;;5.52;100.00
26719;BME280;14326;50.794;6.060;2024-03-06T02:08:36;99845.91;;;5.43;100.00
26719;BME280;14326;50.794;6.060;2024-03-06T02:11:03;99839.53;;;5.36;100.00
26719;BME280;14326;50.794;6.060;2024-03-06T02:13:30;99842.16;;;5.34;100.00
26719;BME280;14326;50.794;6.060;2024-03-06T02:15:56;99847.16;;;5.27;100.00
26719;BME280;14326;50.794;6.060;2024-03-06T02:18:23;99851.25;;;5.17;100.00
26719;BME280;14326;50.794;6.060;2024-03-06T02:20:51;99848.75;;;4.97;100.00
26719;BME280;14326;50.794;6.060;2024-03-06T02:23:18;99853.41;;;5.04;100.00
26719;BME280;14326;50.794;6.060;2024-03-06T02:25:46;99847.97;;;4.99;100.00
26719;BME280;14326;50.794;6.060;2024-03-06T02:28:13;99847.81;;;4.94;100.00
26719;BME280;14326;50.794;6.060;2024-03-06T02:30:40;99854.94;;;4.73;100.00
26719;BME280;14326;50.794;6.060;2024-03-06T02:33:07;99859.44;;;4.76;100.00
26719;BME280;14326;50.794;6.060;2024-03-06T02:35:34;99853.66;;;4.62;100.00
26719;BME280;14326;50.794;6.060;2024-03-06T02:38:03;99861.34;;;4.56;100.00
26719;BME280;14326;50.794;6.060;2024-03-06T02:40:30;99845.38;;;4.51;100.00
26719;BME280;14326;50.794;6.060;2024-03-06T02:42:57;99855.06;;;4.52;100.00
26719;BME280;14326;50.794;6.060;2024-03-06T02:45:24;99845.25;;;4.48;100.00
26719;BME280;14326;50.794;6.060;2024-03-06T02:47:50;99846.59;;;4.37;100.00
26719;BME280;14326;50.794;6.060;2024-03-06T02:50:17;99853.13;;;4.47;100.00
26719;BME280;14326;50.794;6.060;2024-03-06T02:52:43;99852.09;;;4.43;100.00
26719;BME280;14326;50.794;6.060;2024-03-06T02:55:11;99845.88;;;4.41;100.00
26719;BME280;14326;50.794;6.060;2024-03-06T02:57:38;99841.63;;;4.45;100.00
26719;BME280;14326;50.794;6.060;2024-03-06T03:00:06;99845.53;;;4.32;100.00
26719;BME280;14326;50.794;6.060;2024-03-06T03:02:38;99842.06;;;4.33;100.00
26719;BME280;14326;50.794;6.060;2024-03-06T03:05:05;99840.94;;;4.27;100.00
26719;BME280;14326;50.794;6.060;2024-03-06T03:07:32;99836.44;;;4.24;100.00
26719;BME280;14326;50.794;6.060;2024-03-06T03:09:59;99845.00;;;4.19;100.00
26719;BME280;14326;50.794;6.060;2024-03-06T03:12:27;99848.50;;;4.18;100.00
26719;BME280;14326;50.794;6.060;2024-03-06T03:14:53;99846.53;;;4.12;100.00
26719;BME280;14326;50.794;6.060;2024-03-06T03:17:20;99848.97;;;4.07;100.00
26719;BME280;14326;50.794;6.060;2024-03-06T03:19:46;99851.91;;;4.15;100.00
26719;BME280;14326;50.794;6.060;2024-03-06T03:22:13;99848.50;;;4.18;100.00
26719;BME280;14326;50.794;6.060;2024-03-06T03:24:41;99843.25;;;4.18;100.00
26719;BME280;14326;50.794;6.060;2024-03-06T03:27:08;99849.34;;;4.17;100.00
26719;BME280;14326;50.794;6.060;2024-03-06T03:29:35;99850.09;;;4.14;100.00
26719;BME280;14326;50.794;6.060;2024-03-06T03:32:02;99853.47;;;4.10;100.00
26719;BME280;14326;50.794;6.060;2024-03-06T03:34:29;99855.25;;;4.11;100.00
26719;BME280;14326;50.794;6.060;2024-03-06T03:36:56;99859.78;;;4.15;100.00
26719;BME280;14326;50.794;6.060;2024-03-06T03:39:23;99856.50;;;4.21;100.00
26719;BME280;14326;50.794;6.060;2024-03-06T03:41:50;99855.19;;;4.09;100.00
26719;BME280;14326;50.794;6.060;2024-03-06T03:44:17;99865.25;;;3.97;100.00
26719;BME280;14326;50.794;6.060;2024-03-06T03:46:46;99867.63;;;3.91;100.00
26719;BME280;14326;50.794;6.060;2024-03-06T03:49:13;99875.19;;;3.82;100.00
26719;BME280;14326;50.794;6.060;2024-03-06T03:51:40;99879.16;;;3.95;100.00
26719;BME280;14326;50.794;6.060;2024-03-06T03:54:07;99879.97;;;3.92;100.00
26719;BME280;14326;50.794;6.060;2024-03-06T03:56:35;99886.38;;;3.99;100.00
26719;BME280;14326;50.794;6.060;2024-03-06T03:59:01;99893.13;;;3.92;100.00
26719;BME280;14326;50.794;6.060;2024-03-06T04:01:28;99900.00;;;3.89;100.00
26719;BME280;14326;50.794;6.060;2024-03-06T04:03:56;99902.31;;;3.81;100.00
26719;BME280;14326;50.794;6.060;2024-03-06T04:06:22;99902.16;;;3.77;100.00
26719;BME280;14326;50.794;6.060;2024-03-06T04:08:49;99908.53;;;3.83;100.00
26719;BME280;14326;50.794;6.060;2024-03-06T04:11:15;99915.16;;;3.74;100.00
26719;BME280;14326;50.794;6.060;2024-03-06T04:13:42;99912.44;;;3.72;100.00
26719;BME280;14326;50.794;6.060;2024-03-06T04:16:09;99915.94;;;3.71;100.00
26719;BME280;14326;50.794;6.060;2024-03-06T04:18:35;99923.88;;;3.72;100.00
26719;BME280;14326;50.794;6.060;2024-03-06T04:21:05;99925.44;;;3.67;100.00
26719;BME280;14326;50.794;6.060;2024-03-06T04:23:32;99924.44;;;3.65;100.00
26719;BME280;14326;50.794;6.060;2024-03-06T04:25:59;99925.25;;;3.63;100.00
26719;BME280;14326;50.794;6.060;2024-03-06T04:28:26;99926.91;;;3.61;100.00
26719;BME280;14326;50.794;6.060;2024-03-06T04:30:52;99930.34;;;3.60;100.00
26719;BME280;14326;50.794;6.060;2024-03-06T04:33:19;99920.56;;;3.56;100.00
26719;BME280;14326;50.794;6.060;2024-03-06T04:35:45;99925.00;;;3.57;100.00
26719;BME280;14326;50.794;6.060;2024-03-06T04:38:13;99924.16;;;3.58;100.00
26719;BME280;14326;50.794;6.060;2024-03-06T04:40:40;99924.28;;;3.61;100.00
26719;BME280;14326;50.794;6.060;2024-03-06T04:43:07;99924.84;;;3.54;100.00
26719;BME280;14326;50.794;6.060;2024-03-06T04:45:33;99919.53;;;3.52;100.00
26719;BME280;14326;50.794;6.060;2024-03-06T04:48:00;99929.41;;;3.58;100.00
26719;BME280;14326;50.794;6.060;2024-03-06T04:50:27;99925.16;;;3.61;100.00
26719;BME280;14326;50.794;6.060;2024-03-06T04:52:53;99928.38;;;3.54;100.00
26719;BME280;14326;50.794;6.060;2024-03-06T04:55:22;99932.72;;;3.54;100.00
26719;BME280;14326;50.794;6.060;2024-03-06T04:57:51;99941.41;;;3.51;100.00
26719;BME280;14326;50.794;6.060;2024-03-06T05:00:18;99935.19;;;3.49;100.00
26719;BME280;14326;50.794;6.060;2024-03-06T05:02:44;99937.94;;;3.52;100.00
26719;BME280;14326;50.794;6.060;2024-03-06T05:05:11;99936.91;;;3.49;100.00
26719;BME280;14326;50.794;6.060;2024-03-06T05:07:38;99940.06;;;3.40;100.00
26719;BME280;14326;50.794;6.060;2024-03-06T05:10:05;99943.44;;;3.38;100.00
26719;BME280;14326;50.794;6.060;2024-03-06T05:12:34;99956.47;;;3.35;100.00
26719;BME280;14326;50.794;6.060;2024-03-06T05:15:01;99956.47;;;3.35;100.00
26719;BME280;14326;50.794;6.060;2024-03-06T05:17:28;99955.56;;;3.34;100.00
26719;BME280;14326;50.794;6.060;2024-03-06T05:19:54;99956.13;;;3.27;100.00
26719;BME280;14326;50.794;6.060;2024-03-06T05:22:21;99958.84;;;3.28;100.00
26719;BME280;14326;50.794;6.060;2024-03-06T05:24:48;99971.00;;;3.26;100.00
26719;BME280;14326;50.794;6.060;2024-03-06T05:27:14;99962.13;;;3.24;100.00
26719;BME280;14326;50.794;6.060;2024-03-06T05:29:43;99959.25;;;3.18;100.00
26719;BME280;14326;50.794;6.060;2024-03-06T05:32:10;99970.75;;;3.20;100.00
26719;BME280;14326;50.794;6.060;2024-03-06T05:34:37;99973.03;;;3.13;100.00
26719;BME280;14326;50.794;6.060;2024-03-06T05:37:04;99977.13;;;3.06;100.00
26719;BME280;14326;50.794;6.060;2024-03-06T05:39:31;99982.59;;;3.11;100.00
26719;BME280;14326;50.794;6.060;2024-03-06T05:42:00;99984.44;;;3.13;100.00
26719;BME280;14326;50.794;6.060;2024-03-06T05:44:28;99985.13;;;3.09;100.00
26719;BME280;14326;50.794;6.060;2024-03-06T05:46:56;99994.28;;;2.98;100.00
26719;BME280;14326;50.794;6.060;2024-03-06T05:49:23;99995.56;;;3.08;100.00
26719;BME280;14326;50.794;6.060;2024-03-06T05:51:50;100002.28;;;3.01;100.00
26719;BME280;14326;50.794;6.060;2024-03-06T05:54:17;100006.50;;;2.98;100.00
26719;BME280;14326;50.794;6.060;2024-03-06T05:56:44;100011.97;;;3.02;100.00
26719;BME280;14326;50.794;6.060;2024-03-06T05:59:11;100007.97;;;2.91;100.00
26719;BME280;14326;50.794;6.060;2024-03-06T06:01:38;100010.09;;;2.80;100.00
26719;BME280;14326;50.794;6.060;2024-03-06T06:04:07;100009.56;;;2.87;100.00
26719;BME280;14326;50.794;6.060;2024-03-06T06:06:34;100016.88;;;2.95;100.00
26719;BME280;14326;50.794;6.060;2024-03-06T06:09:00;100021.50;;;2.81;100.00
26719;BME280;14326;50.794;6.060;2024-03-06T06:11:29;100023.59;;;2.88;100.00
26719;BME280;14326;50.794;6.060;2024-03-06T06:13:55;100027.44;;;2.96;100.00
26719;BME280;14326;50.794;6.060;2024-03-06T06:16:22;100035.34;;;2.96;100.00
26719;BME280;14326;50.794;6.060;2024-03-06T06:18:48;100035.63;;;3.02;100.00
26719;BME280;14326;50.794;6.060;2024-03-06T06:21:16;100037.28;;;3.00;100.00
26719;BME280;14326;50.794;6.060;2024-03-06T06:23:43;100039.91;;;3.00;100.00
26719;BME280;14326;50.794;6.060;2024-03-06T06:26:10;100041.97;;;3.07;100.00
26719;BME280;14326;50.794;6.060;2024-03-06T06:28:37;100041.22;;;3.10;100.00
26719;BME280;14326;50.794;6.060;2024-03-06T06:31:04;100041.44;;;3.14;100.00
26719;BME280;14326;50.794;6.060;2024-03-06T06:33:30;100051.31;;;3.20;100.00
26719;BME280;14326;50.794;6.060;2024-03-06T06:35:57;100052.22;;;3.20;100.00
26719;BME280;14326;50.794;6.060;2024-03-06T06:38:25;100056.38;;;3.15;100.00
26719;BME280;14326;50.794;6.060;2024-03-06T06:40:51;100058.94;;;3.33;100.00
26719;BME280;14326;50.794;6.060;2024-03-06T06:43:18;100055.94;;;3.45;100.00
26719;BME280;14326;50.794;6.060;2024-03-06T06:45:45;100063.19;;;3.50;100.00
26719;BME280;14326;50.794;6.060;2024-03-06T06:48:12;100075.00;;;3.60;100.00
26719;BME280;14326;50.794;6.060;2024-03-06T06:50:38;100072.81;;;3.90;100.00
26719;BME280;14326;50.794;6.060;2024-03-06T06:53:05;100058.59;;;5.39;100.00
26719;BME280;14326;50.794;6.060;2024-03-06T06:55:33;100056.63;;;7.48;100.00
26719;BME280;14326;50.794;6.060;2024-03-06T06:57:59;100046.09;;;8.86;92.71
26719;BME280;14326;50.794;6.060;2024-03-06T07:00:26;100054.66;;;9.12;84.76
26719;BME280;14326;50.794;6.060;2024-03-06T07:02:53;100060.97;;;8.79;82.08
26719;BME280;14326;50.794;6.060;2024-03-06T07:05:21;100064.44;;;8.39;83.19
26719;BME280;14326;50.794;6.060;2024-03-06T07:07:47;100070.00;;;7.84;85.37
26719;BME280;14326;50.794;6.060;2024-03-06T07:10:14;100071.78;;;7.52;88.62
26719;BME280;14326;50.794;6.060;2024-03-06T07:12:42;100078.34;;;7.35;91.33
26719;BME280;14326;50.794;6.060;2024-03-06T07:15:08;100079.47;;;7.45;92.39
26719;BME280;14326;50.794;6.060;2024-03-06T07:17:35;100079.03;;;7.59;92.12
26719;BME280;14326;50.794;6.060;2024-03-06T07:20:02;100067.44;;;7.87;91.59
26719;BME280;14326;50.794;6.060;2024-03-06T07:22:30;100070.84;;;8.47;89.62
26719;BME280;14326;50.794;6.060;2024-03-06T07:24:57;100063.56;;;9.15;86.02
26719;BME280;14326;50.794;6.060;2024-03-06T07:27:23;100077.25;;;9.77;80.59
26719;BME280;14326;50.794;6.060;2024-03-06T07:29:51;100066.00;;;9.92;78.33
26719;BME280;14326;50.794;6.060;2024-03-06T07:32:19;100080.97;;;9.86;77.86
26719;BME280;14326;50.794;6.060;2024-03-06T07:34:45;100084.88;;;10.05;77.96
26719;BME280;14326;50.794;6.060;2024-03-06T07:37:12;100089.72;;;10.26;76.71
26719;BME280;14326;50.794;6.060;2024-03-06T07:39:39;100080.44;;;10.52;74.42
26719;BME280;14326;50.794;6.060;2024-03-06T07:42:06;100081.41;;;10.57;72.90
26719;BME280;14326;50.794;6.060;2024-03-06T07:44:33;100083.69;;;10.90;72.34
26719;BME280;14326;50.794;6.060;2024-03-06T07:47:02;100090.91;;;10.97;71.37
26719;BME280;14326;50.794;6.060;2024-03-06T07:49:29;100089.91;;;10.91;72.15
26719;BME280;14326;50.794;6.060;2024-03-06T07:51:57;100090.50;;;10.73;75.04
26719;BME280;14326;50.794;6.060;2024-03-06T07:54:24;100093.59;;;10.99;74.54
26719;BME280;14326;50.794;6.060;2024-03-06T07:56:50;100099.56;;;11.44;72.80
26719;BME280;14326;50.794;6.060;2024-03-06T07:59:19;100099.47;;;12.06;68.78
26719;BME280;14326;50.794;6.060;2024-03-06T08:01:45;100093.06;;;12.83;65.59
26719;BME280;14326;50.794;6.060;2024-03-06T08:04:14;100094.25;;;13.21;61.66
26719;BME280;14326;50.794;6.060;2024-03-06T08:06:42;100107.75;;;13.50;60.24
26719;BME280;14326;50.794;6.060;2024-03-06T08:09:09;100105.78;;;13.16;60.63
26719;BME280;14326;50.794;6.060;2024-03-06T08:11:36;100103.84;;;12.98;62.45
26719;BME280;14326;50.794;6.060;2024-03-06T08:14:02;100119.06;;;13.06;62.27
26719;BME280;14326;50.794;6.060;2024-03-06T08:16:30;100115.44;;;13.03;64.11
26719;BME280;14326;50.794;6.060;2024-03-06T08:18:56;100123.50;;;13.06;64.11
26719;BME280;14326;50.794;6.060;2024-03-06T08:21:26;100116.47;;;13.13;62.33
26719;BME280;14326;50.794;6.060;2024-03-06T08:23:53;100112.75;;;12.98;65.59
26719;BME280;14326;50.794;6.060;2024-03-06T08:26:20;100122.56;;;12.99;67.79
26719;BME280;14326;50.794;6.060;2024-03-06T08:28:46;100117.25;;;13.05;66.69
26719;BME280;14326;50.794;6.060;2024-03-06T08:31:14;100132.34;;;12.96;66.48
26719;BME280;14326;50.794;6.060;2024-03-06T08:33:40;100122.34;;;12.73;67.69
26719;BME280;14326;50.794;6.060;2024-03-06T08:36:07;100127.75;;;12.81;69.05
26719;BME280;14326;50.794;6.060;2024-03-06T08:38:35;100124.19;;;12.82;70.00
26719;BME280;14326;50.794;6.060;2024-03-06T08:41:02;100137.31;;;12.58;70.27
26719;BME280;14326;50.794;6.060;2024-03-06T08:43:30;100136.63;;;12.77;69.30
26719;BME280;14326;50.794;6.060;2024-03-06T08:45:57;100133.94;;;12.76;70.67
26719;BME280;14326;50.794;6.060;2024-03-06T08:48:23;100135.69;;;12.73;69.71
26719;BME280;14326;50.794;6.060;2024-03-06T08:50:50;100141.09;;;12.78;70.14
26719;BME280;14326;50.794;6.060;2024-03-06T08:53:18;100130.25;;;12.63;73.01
26719;BME280;14326;50.794;6.060;2024-03-06T08:55:46;100140.59;;;12.28;73.74
26719;BME280;14326;50.794;6.060;2024-03-06T08:58:12;100147.38;;;12.00;78.74
26719;BME280;14326;50.794;6.060;2024-03-06T09:00:40;100149.13;;;11.98;76.85
26719;BME280;14326;50.794;6.060;2024-03-06T09:03:06;100157.88;;;11.86;71.19
26719;BME280;14326;50.794;6.060;2024-03-06T09:05:33;100153.06;;;10.99;74.33
26719;BME280;14326;50.794;6.060;2024-03-06T09:08:00;100164.22;;;10.79;78.77
26719;BME280;14326;50.794;6.060;2024-03-06T09:10:28;100160.22;;;11.05;78.69
26719;BME280;14326;50.794;6.060;2024-03-06T09:12:56;100164.00;;;11.19;77.97
26719;BME280;14326;50.794;6.060;2024-03-06T09:15:23;100166.59;;;10.62;78.88
26719;BME280;14326;50.794;6.060;2024-03-06T09:17:49;100157.19;;;10.82;80.48
26719;BME280;14326;50.794;6.060;2024-03-06T09:20:16;100166.00;;;10.80;80.93
26719;BME280;14326;50.794;6.060;2024-03-06T09:22:43;100164.16;;;10.74;79.24
26719;BME280;14326;50.794;6.060;2024-03-06T09:25:10;100169.06;;;10.51;80.89
26719;BME280;14326;50.794;6.060;2024-03-06T09:27:39;100168.22;;;10.09;81.19
26719;BME280;14326;50.794;6.060;2024-03-06T09:30:08;100176.28;;;10.13;82.56
26719;BME280;14326;50.794;6.060;2024-03-06T09:32:35;100180.53;;;10.04;83.14
26719;BME280;14326;50.794;6.060;2024-03-06T09:35:01;100178.28;;;10.22;85.86
26719;BME280;14326;50.794;6.060;2024-03-06T09:37:28;100186.78;;;10.07;85.75
26719;BME280;14326;50.794;6.060;2024-03-06T09:39:55;100186.38;;;10.28;85.67
26719;BME280;14326;50.794;6.060;2024-03-06T09:42:22;100186.09;;;10.16;84.39
26719;BME280;14326;50.794;6.060;2024-03-06T09:44:49;100186.63;;;10.43;83.62
26719;BME280;14326;50.794;6.060;2024-03-06T09:47:21;100188.66;;;10.56;81.05
26719;BME280;14326;50.794;6.060;2024-03-06T09:49:51;100185.06;;;10.53;83.64
26719;BME280;14326;50.794;6.060;2024-03-06T09:52:18;100196.88;;;10.68;82.25
26719;BME280;14326;50.794;6.060;2024-03-06T09:54:45;100188.41;;;10.43;77.72
26719;BME280;14326;50.794;6.060;2024-03-06T09:57:13;100192.50;;;10.25;73.68
26719;BME280;14326;50.794;6.060;2024-03-06T09:59:41;100195.06;;;10.21;74.59
26719;BME280;14326;50.794;6.060;2024-03-06T10:02:24;100200.47;;;10.24;75.31
26719;BME280;14326;50.794;6.060;2024-03-06T10:04:55;100194.66;;;10.45;74.55
26719;BME280;14326;50.794;6.060;2024-03-06T10:07:22;100204.81;;;10.65;73.71
26719;BME280;14326;50.794;6.060;2024-03-06T10:09:49;100194.16;;;10.65;72.57
26719;BME280;14326;50.794;6.060;2024-03-06T10:12:17;100198.69;;;10.71;71.69
26719;BME280;14326;50.794;6.060;2024-03-06T10:14:49;100203.22;;;10.77;73.90
26719;BME280;14326;50.794;6.060;2024-03-06T10:17:21;100207.72;;;10.81;73.45
26719;BME280;14326;50.794;6.060;2024-03-06T10:19:48;100206.91;;;10.85;75.12
26719;BME280;14326;50.794;6.060;2024-03-06T10:22:17;100205.31;;;10.96;74.65
26719;BME280;14326;50.794;6.060;2024-03-06T10:24:44;100199.97;;;10.93;75.92
26719;BME280;14326;50.794;6.060;2024-03-06T10:27:14;100199.94;;;10.91;76.56
26719;BME280;14326;50.794;6.060;2024-03-06T10:29:41;100208.88;;;10.95;76.40
26719;BME280;14326;50.794;6.060;2024-03-06T10:32:08;100211.25;;;10.80;77.04
26719;BME280;14326;50.794;6.060;2024-03-06T10:34:37;100206.88;;;10.82;77.65
26719;BME280;14326;50.794;6.060;2024-03-06T10:37:04;100214.03;;;10.86;78.41
26719;BME280;14326;50.794;6.060;2024-03-06T10:39:33;100218.44;;;10.84;78.93
26719;BME280;14326;50.794;6.060;2024-03-06T10:42:02;100211.22;;;10.78;78.51
26719;BME280;14326;50.794;6.060;2024-03-06T10:44:32;100213.16;;;10.87;77.51
26719;BME280;14326;50.794;6.060;2024-03-06T10:47:02;100213.88;;;10.77;76.90
26719;BME280;14326;50.794;6.060;2024-03-06T10:49:29;100217.44;;;10.77;76.54
26719;BME280;14326;50.794;6.060;2024-03-06T10:51:59;100217.50;;;10.82;76.21
26719;BME280;14326;50.794;6.060;2024-03-06T10:54:27;100225.75;;;10.95;75.54
26719;BME280;14326;50.794;6.060;2024-03-06T10:56:55;100214.31;;;11.02;74.51
26719;BME280;14326;50.794;6.060;2024-03-06T10:59:24;100224.97;;;11.02;72.79
26719;BME280;14326;50.794;6.060;2024-03-06T11:01:53;100227.63;;;11.01;71.44
26719;BME280;14326;50.794;6.060;2024-03-06T11:04:21;100217.56;;;10.83;75.80
26719;BME280;14326;50.794;6.060;2024-03-06T11:06:49;100224.97;;;11.01;76.44
26719;BME280;14326;50.794;6.060;2024-03-06T11:09:17;100229.69;;;11.19;76.57
26719;BME280;14326;50.794;6.060;2024-03-06T11:11:51;100224.63;;;11.37;73.23
26719;BME280;14326;50.794;6.060;2024-03-06T11:14:18;100223.53;;;11.23;70.43
26719;BME280;14326;50.794;6.060;2024-03-06T11:16:58;100229.84;;;10.77;72.24
26719;BME280;14326;50.794;6.060;2024-03-06T11:19:26;100229.97;;;10.83;73.73
26719;BME280;14326;50.794;6.060;2024-03-06T11:21:54;100230.28;;;11.01;71.75
26719;BME280;14326;50.794;6.060;2024-03-06T11:24:23;100230.56;;;11.19;70.90
26719;BME280;14326;50.794;6.060;2024-03-06T11:26:59;100228.06;;;11.28;69.26
26719;BME280;14326;50.794;6.060;2024-03-06T11:29:28;100230.84;;;11.37;68.34
26719;BME280;14326;50.794;6.060;2024-03-06T11:32:00;100225.81;;;11.56;62.68
26719;BME280;14326;50.794;6.060;2024-03-06T11:34:26;100229.34;;;11.55;64.87
26719;BME280;14326;50.794;6.060;2024-03-06T11:36:53;100224.59;;;11.93;64.24
26719;BME280;14326;50.794;6.060;2024-03-06T11:39:23;100226.06;;;12.39;62.89
26719;BME280;14326;50.794;6.060;2024-03-06T11:41:50;100217.41;;;12.59;59.45
26719;BME280;14326;50.794;6.060;2024-03-06T11:44:18;100217.66;;;12.82;57.87
26719;BME280;14326;50.794;6.060;2024-03-06T11:46:47;100214.88;;;12.71;56.92
26719;BME280;14326;50.794;6.060;2024-03-06T11:49:15;100221.34;;;12.98;56.74
26719;BME280;14326;50.794;6.060;2024-03-06T11:51:44;100218.00;;;13.20;56.67
26719;BME280;14326;50.794;6.060;2024-03-06T11:54:11;100215.22;;;13.09;55.99
26719;BME280;14326;50.794;6.060;2024-03-06T11:56:39;100217.28;;;13.41;56.10
26719;BME280;14326;50.794;6.060;2024-03-06T11:59:06;100221.97;;;13.80;55.60
26719;BME280;14326;50.794;6.060;2024-03-06T12:01:35;100208.72;;;14.00;55.63
26719;BME280;14326;50.794;6.060;2024-03-06T12:04:02;100219.34;;;13.81;53.89
26719;BME280;14326;50.794;6.060;2024-03-06T12:06:29;100218.44;;;13.78;54.55
26719;BME280;14326;50.794;6.060;2024-03-06T12:08:56;100214.09;;;14.00;54.31
26719;BME280;14326;50.794;6.060;2024-03-06T12:11:23;100221.09;;;13.76;53.38
26719;BME280;14326;50.794;6.060;2024-03-06T12:13:52;100221.00;;;13.64;53.42
26719;BME280;14326;50.794;6.060;2024-03-06T12:16:18;100221.00;;;13.67;52.80
26719;BME280;14326;50.794;6.060;2024-03-06T12:18:45;100218.38;;;13.73;52.57
26719;BME280;14326;50.794;6.060;2024-03-06T12:21:12;100230.88;;;13.71;52.33
26719;BME280;14326;50.794;6.060;2024-03-06T12:23:39;100228.16;;;13.65;52.64
26719;BME280;14326;50.794;6.060;2024-03-06T12:26:07;100228.66;;;13.16;52.08
26719;BME280;14326;50.794;6.060;2024-03-06T12:28:35;100234.75;;;13.01;52.77
26719;BME280;14326;50.794;6.060;2024-03-06T12:31:04;100225.78;;;12.97;52.95
26719;BME280;14326;50.794;6.060;2024-03-06T12:33:31;100228.25;;;12.75;52.57
26719;BME280;14326;50.794;6.060;2024-03-06T12:36:01;100236.13;;;12.64;51.80
26719;BME280;14326;50.794;6.060;2024-03-06T12:38:28;100234.78;;;12.24;52.67
26719;BME280;14326;50.794;6.060;2024-03-06T12:40:55;100232.09;;;12.22;54.68
26719;BME280;14326;50.794;6.060;2024-03-06T12:43:22;100239.22;;;12.23;53.17
26719;BME280;14326;50.794;6.060;2024-03-06T12:45:49;100235.84;;;12.37;52.75
26719;BME280;14326;50.794;6.060;2024-03-06T12:48:17;100237.69;;;12.44;53.18
26719;BME280;14326;50.794;6.060;2024-03-06T12:50:44;100223.66;;;12.63;53.04
26719;BME280;14326;50.794;6.060;2024-03-06T12:53:15;100227.44;;;12.83;52.32
26719;BME280;14326;50.794;6.060;2024-03-06T12:55:42;100215.66;;;12.60;52.79